• Join FlightAware (Why Join?)
  • Login
  • US Flag 
07:55PM EST


 

Airport Tracker/Info


-or-


 

Live Flight TrackerFlight Track Log ✈ SAS4169 ✈ 28-Jun-2012 ✈ ENVA / TRD - ENBR / BGO

Flight Track Log - Related Links

Times and Time Zones

All times are in EDT time to prevent confusion due to time zone crossing. See the SAS4169 flight status page for this flight to view local times or setup timezone preferences in your user account.

Time Position Orientation Groundspeed Altitude Reporting Facility
EDT Latitude Longitude Course Direction KTS MPH feet Rate Location/Type
10:03AM 63.3828 10.7845 223° Southwest  Level Estimated
10:04AM 63.3103 10.6349 223° Southwest  Level Estimated
10:05AM 63.2377 10.4860 223° Southwest  Level Estimated
10:06AM 63.1648 10.3379 222° Southwest  Level Estimated
10:07AM 63.0919 10.1905 222° Southwest  Level Estimated
10:08AM 63.0188 10.0439 222° Southwest  Level Estimated
10:09AM 62.9455 9.8980 222° Southwest  Level Estimated
10:10AM 62.8721 9.7529 222° Southwest  Level Estimated
10:11AM 62.7985 9.6084 222° Southwest  Level Estimated
10:12AM 62.7248 9.4647 222° Southwest  Level Estimated
10:13AM 62.6510 9.3217 222° Southwest  Level Estimated
10:14AM 62.5770 9.1794 221° Southwest  Level Estimated
10:15AM 62.5028 9.0378 221° Southwest  Level Estimated
10:16AM 62.4285 8.8969 221° Southwest  Level Estimated
10:17AM 62.3541 8.7568 221° Southwest  Level Estimated
10:18AM 62.2795 8.6173 221° Southwest  Level Estimated
10:19AM 62.2048 8.4785 221° Southwest  Level Estimated
10:20AM 62.1300 8.3404 221° Southwest  Level Estimated
10:21AM 62.0550 8.2029 221° Southwest  Level Estimated
10:22AM 61.9799 8.0662 220° Southwest  Level Estimated
10:23AM 61.9046 7.9301 220° Southwest  Level Estimated
10:24AM 61.8292 7.7947 220° Southwest  Level Estimated
10:25AM 61.7537 7.6600 220° Southwest  Level Estimated
10:26AM 61.6780 7.5259 220° Southwest  Level Estimated
10:27AM 61.6022 7.3924 220° Southwest  Level Estimated
10:28AM 61.5263 7.2597 220° Southwest  Level Estimated
10:29AM 61.4503 7.1275 220° Southwest  Level Estimated
10:30AM 61.3741 6.9960 219° Southwest  Level Estimated
10:31AM 61.2978 6.8652 219° Southwest  Level Estimated
10:32AM 61.2214 6.7350 219° Southwest  Level Estimated
10:33AM 61.1449 6.6054 219° Southwest  Level Estimated
10:34AM 61.0682 6.4765 219° Southwest  Level Estimated
10:35AM 60.9914 6.3481 219° Southwest  Level Estimated
10:36AM 60.8991 6.1950 219° Southwest  Level Estimated
10:37AM 60.8066 6.0427 219° Southwest  Level Estimated
10:38AM 60.7140 5.8913 219° Southwest  Level Estimated
10:39AM 60.6211 5.7407 218° Southwest  Level Estimated
10:40AM 60.5281 5.5910 218° Southwest  Level Estimated
10:41AM 60.4350 5.4422 218° Southwest  Level Estimated
10:42AM 60.3417 5.2942 218° Southwest  Level Estimated
10:43AM 60.2482 5.1471 38° Northeast  Level Estimated
10:44AM 60.3417 5.2942 218° Southwest  Level Estimated
10:45AM 60.2482 5.1471 38° Northeast  Level Estimated
10:46AM 60.3417 5.2942 218° Southwest  Level Estimated
10:47AM 60.2482 5.1471 38° Northeast  Level Estimated
10:48AM 60.3417 5.2942 218° Southwest  Level Estimated
10:49AM 60.2482 5.1471 38° Northeast  Level Estimated
10:50AM 60.3417 5.2942 218° Southwest  Level Estimated
10:51AM 60.2482 5.1471 218° Southwest  Level Estimated